Burns Harbor, Indiana
Current Conditions -  °F | °C
As of 3:56 AM on Sunday 21 Dec 2014 (Local Time) from KVPZ Reporting Station
Overcast Overcast  
Wind Chill: 24°   Ceiling: 2200
Heat Index: 30°   Visibility: 7mi
Dew Point: 26°   Wind: 6mph
Humidity: 85%   Direction: 170°S
Pressure: 30.26"   Gusts: NA
Location:  41.6139°N, 87.0454°W
Report Text: KVPZ 210956Z AUTO 17005KT 7SM OVC022 M01/M03 A3026 RMK AO2 SLP255 T10111033 TSNO
Loading
Personal Weather Stations






























Interactive Weather Map New forecast layout! Learn more

10-Day Weather Forecast

Advertisements
Track Severe Weather on mobile